createdAt,value
2018-04-11T00:00:53.067Z,0.00
2018-04-11T00:01:53.075Z,0.00
2018-04-11T00:02:53.088Z,0.00
2018-04-11T00:03:53.104Z,0.00
2018-04-11T00:04:53.106Z,0.00
2018-04-11T00:05:53.114Z,0.00
2018-04-11T00:06:53.127Z,0.00
2018-04-11T00:07:53.134Z,0.00
2018-04-11T00:08:53.146Z,0.00
2018-04-11T00:09:53.157Z,0.00
2018-04-11T00:10:53.174Z,0.00
2018-04-11T00:11:53.178Z,0.00
2018-04-11T00:12:53.190Z,0.00
2018-04-11T00:13:53.199Z,0.00
2018-04-11T00:14:53.211Z,0.00
2018-04-11T00:15:53.222Z,0.00
2018-04-11T00:16:53.236Z,0.00
2018-04-11T00:17:53.242Z,0.00
2018-04-11T00:18:53.255Z,0.00
2018-04-11T00:19:53.264Z,0.00
2018-04-11T00:20:53.273Z,0.00
2018-04-11T00:21:53.284Z,0.00
2018-04-11T00:22:53.295Z,0.00
2018-04-11T00:23:53.312Z,0.00
2018-04-11T00:24:53.318Z,0.00
2018-04-11T00:25:53.330Z,0.00
2018-04-11T00:26:53.339Z,0.00
2018-04-11T00:27:53.348Z,0.00
2018-04-11T00:28:53.357Z,0.00
2018-04-11T00:29:53.369Z,0.00
2018-04-11T00:30:53.375Z,0.00
2018-04-11T00:31:53.388Z,0.00
2018-04-11T00:32:53.393Z,0.00
2018-04-11T00:33:53.403Z,0.00
2018-04-11T00:34:53.410Z,0.00
2018-04-11T00:35:53.431Z,0.00
2018-04-11T00:36:53.429Z,0.00
2018-04-11T00:37:53.444Z,0.00
2018-04-11T00:38:53.451Z,0.00
2018-04-11T00:39:53.461Z,0.00
2018-04-11T00:40:53.468Z,0.00
2018-04-11T00:41:53.485Z,0.00
2018-04-11T00:42:53.488Z,0.00
2018-04-11T00:43:53.500Z,0.00
2018-04-11T00:44:53.510Z,0.00
2018-04-11T00:45:53.521Z,0.00
2018-04-11T00:46:53.533Z,0.00
2018-04-11T00:47:53.543Z,0.00
2018-04-11T00:48:53.553Z,0.00
2018-04-11T00:49:53.561Z,0.00
2018-04-11T00:50:53.571Z,0.00
2018-04-11T00:51:53.581Z,0.00
2018-04-11T00:52:53.594Z,0.00
2018-04-11T00:53:53.606Z,0.00
2018-04-11T00:54:53.617Z,0.00
2018-04-11T00:55:53.623Z,0.00
2018-04-11T00:56:53.633Z,0.00
2018-04-11T00:57:53.641Z,0.00
2018-04-11T00:58:53.652Z,0.00
2018-04-11T00:59:53.667Z,0.00
2018-04-11T01:00:53.674Z,0.00
2018-04-11T01:01:53.679Z,0.00
2018-04-11T01:02:53.691Z,0.00
2018-04-11T01:03:53.700Z,0.00
2018-04-11T01:04:53.724Z,0.00
2018-04-11T01:05:53.720Z,0.00
2018-04-11T01:06:53.734Z,0.00
2018-04-11T01:07:53.740Z,0.00
2018-04-11T01:08:53.750Z,0.00
2018-04-11T01:09:53.757Z,0.00
2018-04-11T01:10:53.767Z,0.00
2018-04-11T01:11:53.779Z,0.00
2018-04-11T01:12:53.832Z,0.00
2018-04-11T01:13:53.797Z,0.00
2018-04-11T01:14:53.815Z,0.00
2018-04-11T01:15:53.815Z,0.00
2018-04-11T01:16:53.828Z,0.00
2018-04-11T01:17:53.838Z,0.00
2018-04-11T01:18:53.848Z,0.00
2018-04-11T01:19:53.862Z,0.00
2018-04-11T01:20:53.869Z,0.00
2018-04-11T01:21:53.882Z,0.00
2018-04-11T01:22:53.890Z,0.00
2018-04-11T01:23:53.898Z,0.00
2018-04-11T01:24:53.906Z,0.00
2018-04-11T01:25:53.927Z,0.00
2018-04-11T01:26:53.929Z,0.00
2018-04-11T01:27:53.939Z,0.00
2018-04-11T01:28:53.949Z,0.00
2018-04-11T01:29:53.958Z,0.00
2018-04-11T01:30:53.969Z,0.00
2018-04-11T01:31:53.979Z,0.00
2018-04-11T01:32:53.996Z,0.00
2018-04-11T01:33:53.995Z,0.00
2018-04-11T01:34:54.005Z,0.00
2018-04-11T01:35:54.018Z,0.00
2018-04-11T01:36:54.029Z,0.00
2018-04-11T01:37:54.034Z,0.00
2018-04-11T01:38:54.058Z,0.00
2018-04-11T01:39:54.054Z,0.00
2018-04-11T01:40:54.066Z,0.00
2018-04-11T01:41:54.073Z,0.00
2018-04-11T01:42:54.089Z,0.00
2018-04-11T01:43:54.093Z,0.00
2018-04-11T01:44:54.122Z,0.00
2018-04-11T01:45:54.115Z,0.00
2018-04-11T01:46:54.123Z,0.00
2018-04-11T01:47:54.134Z,0.00
2018-04-11T01:48:54.145Z,0.00
2018-04-11T01:49:54.159Z,0.00
2018-04-11T01:50:54.172Z,0.00
2018-04-11T01:51:54.175Z,0.00
2018-04-11T01:52:54.183Z,0.00
2018-04-11T01:53:54.194Z,0.00
2018-04-11T01:54:54.205Z,0.00
2018-04-11T01:55:54.210Z,0.00
2018-04-11T01:56:54.223Z,0.00
2018-04-11T01:57:54.241Z,0.00
2018-04-11T01:58:54.257Z,0.00
2018-04-11T01:59:54.249Z,0.00
2018-04-11T02:00:54.261Z,0.00
2018-04-11T02:01:54.278Z,0.00
2018-04-11T02:02:54.281Z,0.00
2018-04-11T02:03:54.292Z,0.00
2018-04-11T02:04:54.303Z,0.00
2018-04-11T02:05:54.317Z,0.00
2018-04-11T02:06:54.324Z,0.00
2018-04-11T02:07:54.331Z,0.00
2018-04-11T02:08:54.342Z,0.00
2018-04-11T02:09:54.352Z,0.00
2018-04-11T02:10:54.363Z,0.00
2018-04-11T02:11:54.378Z,0.00
2018-04-11T02:12:54.381Z,0.00
2018-04-11T02:13:54.387Z,0.00
2018-04-11T02:14:54.399Z,0.00
2018-04-11T02:15:54.408Z,0.00
2018-04-11T02:16:54.421Z,0.00
2018-04-11T02:17:54.432Z,0.00
2018-04-11T02:18:54.438Z,0.00
2018-04-11T02:19:54.447Z,0.00
2018-04-11T02:20:54.457Z,0.00
2018-04-11T02:21:54.467Z,0.00
2018-04-11T02:22:54.476Z,0.00
2018-04-11T02:23:54.487Z,0.00
2018-04-11T02:24:54.496Z,0.00
2018-04-11T02:25:54.507Z,0.00
2018-04-11T02:26:54.518Z,0.00
2018-04-11T02:27:54.525Z,0.00
2018-04-11T02:28:54.533Z,0.00
2018-04-11T02:29:54.548Z,0.00
2018-04-11T02:30:54.553Z,0.00
2018-04-11T02:31:54.561Z,0.00
2018-04-11T02:32:54.572Z,0.00
2018-04-11T02:33:54.583Z,0.00
2018-04-11T02:34:54.595Z,0.00
2018-04-11T02:35:54.605Z,0.00
2018-04-11T02:36:54.612Z,0.00
2018-04-11T02:37:54.625Z,0.00
2018-04-11T02:38:54.630Z,0.00
2018-04-11T02:39:54.648Z,0.00
2018-04-11T02:40:54.649Z,0.00
2018-04-11T02:41:54.660Z,0.00
2018-04-11T02:42:54.670Z,0.00
2018-04-11T02:43:54.682Z,0.00
2018-04-11T02:44:54.748Z,0.00
2018-04-11T02:45:54.702Z,0.00
2018-04-11T02:46:54.707Z,0.00
2018-04-11T02:47:54.714Z,0.00
2018-04-11T02:48:54.725Z,0.00
2018-04-11T03:22:23.009Z,0.00
2018-04-11T03:23:23.016Z,0.00
2018-04-11T03:24:23.025Z,0.00
2018-04-11T03:25:23.029Z,0.00
2018-04-11T03:26:23.041Z,0.00
2018-04-11T03:27:23.050Z,0.00
2018-04-11T03:28:23.057Z,0.00
2018-04-11T03:29:23.066Z,0.00
2018-04-11T03:30:23.078Z,0.00
2018-04-11T03:31:23.082Z,0.00
2018-04-11T03:32:23.100Z,0.00
2018-04-11T03:33:23.103Z,0.00
2018-04-11T03:34:23.113Z,0.00
2018-04-11T03:35:23.122Z,0.00
2018-04-11T03:36:23.135Z,0.00
2018-04-11T03:37:23.151Z,0.00
2018-04-11T03:38:23.158Z,0.00
2018-04-11T03:39:23.158Z,0.00
2018-04-11T03:40:23.166Z,0.00
2018-04-11T03:41:23.178Z,0.00
2018-04-11T03:42:23.188Z,0.00
2018-04-11T03:43:23.193Z,0.00
2018-04-11T03:44:23.212Z,0.00
2018-04-11T03:45:23.213Z,0.00
2018-04-11T03:46:23.223Z,0.00
2018-04-11T03:47:23.230Z,0.00
2018-04-11T03:48:23.239Z,0.00
2018-04-11T03:49:23.248Z,0.00
2018-04-11T03:50:23.260Z,0.00
2018-04-11T03:51:23.268Z,0.00
2018-04-11T03:52:23.278Z,0.00
2018-04-11T03:53:23.285Z,0.00
2018-04-11T03:54:23.294Z,0.00
2018-04-11T03:55:23.304Z,0.00
2018-04-11T03:56:23.311Z,0.00
2018-04-11T03:57:23.318Z,0.00
2018-04-11T03:58:23.328Z,0.00
2018-04-11T03:59:23.338Z,0.00
2018-04-11T04:00:23.346Z,0.00
2018-04-11T04:01:23.355Z,0.00
2018-04-11T04:02:23.361Z,0.00
2018-04-11T04:03:23.370Z,0.00
2018-04-11T04:04:23.381Z,0.00
2018-04-11T04:05:23.390Z,0.00
2018-04-11T04:06:23.398Z,0.00
2018-04-11T04:07:23.406Z,0.00
2018-04-11T04:08:23.416Z,0.00
2018-04-11T04:09:23.450Z,0.00
2018-04-11T04:10:23.433Z,0.00
2018-04-11T04:11:23.446Z,0.00
2018-04-11T04:12:23.456Z,0.00
2018-04-11T04:13:23.482Z,0.00
2018-04-11T04:14:23.469Z,0.00
2018-04-11T04:15:23.478Z,0.00
2018-04-11T04:16:23.488Z,0.00
2018-04-11T04:17:23.495Z,0.00
2018-04-11T04:18:23.505Z,0.00
2018-04-11T04:19:23.512Z,0.00
2018-04-11T04:20:23.522Z,0.00
2018-04-11T04:21:23.532Z,0.00
2018-04-11T04:22:23.540Z,0.00
2018-04-11T04:23:23.550Z,0.00
2018-04-11T04:24:23.558Z,0.00
2018-04-11T04:25:23.566Z,0.00
2018-04-11T04:26:23.580Z,0.00
2018-04-11T04:27:23.582Z,0.00
2018-04-11T04:28:23.595Z,0.00
2018-04-11T04:29:23.600Z,0.00
2018-04-11T04:30:23.638Z,0.00
2018-04-11T04:31:23.626Z,0.00
2018-04-11T04:32:23.624Z,0.00
2018-04-11T04:33:23.635Z,0.00
2018-04-11T04:34:23.643Z,0.00
2018-04-11T04:35:23.651Z,0.00
2018-04-11T04:36:23.660Z,0.00
2018-04-11T04:37:23.667Z,5.63
2018-04-11T04:38:23.677Z,5.63
2018-04-11T04:39:23.689Z,5.63
2018-04-11T04:40:23.695Z,5.63
2018-04-11T04:41:23.703Z,5.63
2018-04-11T04:42:23.717Z,5.63
2018-04-11T04:43:23.724Z,5.63
2018-04-11T04:44:23.730Z,5.63
2018-04-11T04:45:23.740Z,11.25
2018-04-11T04:46:23.746Z,11.25
2018-04-11T04:47:23.755Z,11.25
2018-04-11T04:48:23.766Z,11.25
2018-04-11T04:49:23.774Z,11.25
2018-04-11T04:50:23.781Z,11.25
2018-04-11T04:51:23.792Z,16.88
2018-04-11T04:52:23.803Z,16.88
2018-04-11T04:53:23.808Z,16.88
2018-04-11T04:54:23.820Z,16.88
2018-04-11T04:55:23.824Z,16.88
2018-04-11T04:56:23.844Z,22.50
2018-04-11T04:57:23.844Z,22.50
2018-04-11T04:58:23.850Z,22.50
2018-04-11T04:59:23.861Z,22.50
2018-04-11T05:00:23.876Z,22.50
2018-04-11T05:01:23.877Z,28.13
2018-04-11T05:02:23.887Z,28.13
2018-04-11T05:03:23.894Z,28.13
2018-04-11T05:04:23.900Z,28.13
2018-04-11T05:05:23.910Z,33.75
2018-04-11T05:06:23.920Z,33.75
2018-04-11T05:07:23.929Z,33.75
2018-04-11T05:08:23.939Z,33.75
2018-04-11T05:09:23.944Z,39.38
2018-04-11T05:10:23.953Z,39.38
2018-04-11T05:11:23.968Z,39.38
2018-04-11T05:12:23.971Z,39.38
2018-04-11T05:13:23.983Z,39.38
2018-04-11T05:14:23.987Z,45.00
2018-04-11T05:15:23.995Z,45.00
2018-04-11T05:16:24.006Z,45.00
2018-04-11T05:17:24.012Z,45.00
2018-04-11T05:18:24.023Z,50.63
2018-04-11T05:19:24.036Z,50.63
2018-04-11T05:20:24.037Z,50.63
2018-04-11T05:21:24.045Z,50.63
2018-04-11T05:22:24.052Z,50.63
2018-04-11T05:23:24.063Z,56.25
2018-04-11T05:24:24.081Z,56.25
2018-04-11T05:25:24.081Z,56.25
2018-04-11T05:26:24.093Z,56.25
2018-04-11T05:27:24.093Z,56.25
2018-04-11T05:28:24.207Z,61.88
2018-04-11T05:29:24.112Z,61.88
2018-04-11T05:30:24.129Z,61.88
2018-04-11T05:31:24.135Z,61.88
2018-04-11T05:32:24.140Z,61.88
2018-04-11T05:33:24.149Z,67.50
2018-04-11T05:34:24.328Z,67.50
2018-04-11T05:35:24.168Z,67.50
2018-04-11T05:36:24.176Z,67.50
2018-04-11T05:37:24.184Z,67.50
2018-04-11T05:38:24.198Z,67.50
2018-04-11T05:39:24.210Z,73.13
2018-04-11T05:40:24.442Z,73.13
2018-04-11T05:41:24.215Z,73.13
2018-04-11T05:42:24.222Z,73.13
2018-04-11T05:43:24.232Z,73.13
2018-04-11T05:44:24.245Z,73.13
2018-04-11T05:45:24.251Z,73.13
2018-04-11T05:46:24.261Z,78.75
2018-04-11T05:47:24.269Z,78.75
2018-04-11T05:48:24.277Z,78.75
2018-04-11T05:49:24.285Z,78.75
2018-04-11T05:50:24.294Z,78.75
2018-04-11T05:51:24.302Z,78.75
2018-04-11T05:52:24.317Z,78.75
2018-04-11T05:53:24.346Z,84.38
2018-04-11T05:54:24.331Z,84.38
2018-04-11T05:55:24.343Z,84.38
2018-04-11T05:56:24.346Z,84.38
2018-04-11T05:57:24.355Z,84.38
2018-04-11T05:58:24.363Z,84.38
2018-04-11T05:59:24.498Z,84.38
2018-04-11T06:00:24.382Z,90.00
2018-04-11T06:01:24.391Z,90.00
2018-04-11T06:02:24.399Z,90.00
2018-04-11T06:03:24.408Z,90.00
2018-04-11T06:04:24.416Z,90.00
2018-04-11T06:05:24.428Z,90.00
2018-04-11T06:06:24.438Z,90.00
2018-04-11T06:07:24.439Z,90.00
2018-04-11T06:08:24.450Z,90.00
2018-04-11T06:09:24.458Z,95.63
2018-04-11T06:10:24.466Z,95.63
2018-04-11T06:11:24.476Z,95.63
2018-04-11T06:12:24.485Z,95.63
2018-04-11T06:13:24.494Z,95.63
2018-04-11T06:14:24.511Z,95.63
2018-04-11T06:15:24.601Z,95.63
2018-04-11T06:16:24.523Z,95.63
2018-04-11T06:17:24.528Z,95.63
2018-04-11T06:18:24.543Z,95.63
2018-04-11T06:19:24.546Z,101.25
2018-04-11T06:20:24.560Z,101.25
2018-04-11T06:21:24.567Z,101.25
2018-04-11T06:22:24.572Z,101.25
2018-04-11T06:23:24.580Z,101.25
2018-04-11T06:24:24.591Z,101.25
2018-04-11T06:25:24.601Z,101.25
2018-04-11T06:26:24.606Z,101.25
2018-04-11T06:27:24.618Z,101.25
2018-04-11T06:28:24.626Z,101.25
2018-04-11T06:29:24.633Z,101.25
2018-04-11T06:30:24.647Z,101.25
2018-04-11T06:31:24.654Z,106.88
2018-04-11T06:32:24.664Z,106.88
2018-04-11T06:33:24.672Z,106.88
2018-04-11T06:34:24.682Z,106.88
2018-04-11T06:35:24.687Z,106.88
2018-04-11T06:36:24.697Z,106.88
2018-04-11T06:37:24.710Z,106.88
2018-04-11T06:38:24.716Z,106.88
2018-04-11T06:39:24.725Z,106.88
2018-04-11T06:40:24.735Z,106.88
2018-04-11T06:41:24.748Z,106.88
2018-04-11T06:42:24.752Z,106.88
2018-04-11T06:43:24.759Z,106.88
2018-04-11T06:44:24.767Z,106.88
2018-04-11T06:45:24.778Z,106.88
2018-04-11T06:46:24.788Z,106.88
2018-04-11T06:47:24.795Z,106.88
2018-04-11T06:48:24.804Z,106.88
2018-04-11T06:49:24.817Z,106.88
2018-04-11T06:50:24.822Z,106.88
2018-04-11T06:51:24.832Z,106.88
2018-04-11T06:52:24.841Z,112.50
2018-04-11T06:53:24.860Z,112.50
2018-04-11T06:54:24.859Z,106.88
2018-04-11T06:55:24.867Z,106.88
2018-04-11T06:56:24.879Z,106.88
2018-04-11T06:57:24.885Z,106.88
2018-04-11T06:58:24.897Z,106.88
2018-04-11T06:59:24.905Z,106.88
2018-04-11T07:00:24.913Z,106.88
2018-04-11T07:01:24.925Z,106.88
2018-04-11T07:02:24.934Z,106.88
2018-04-11T07:03:24.945Z,106.88
2018-04-11T07:04:24.961Z,106.88
2018-04-11T07:05:24.961Z,106.88
2018-04-11T07:06:24.972Z,106.88
2018-04-11T07:07:24.979Z,106.88
2018-04-11T07:08:24.991Z,106.88
2018-04-11T07:09:25.037Z,106.88
2018-04-11T07:10:25.015Z,112.50
2018-04-11T07:11:25.017Z,112.50
2018-04-11T07:12:25.027Z,112.50
2018-04-11T07:13:25.031Z,112.50
2018-04-11T07:14:25.042Z,112.50
2018-04-11T07:15:25.051Z,112.50
2018-04-11T07:16:25.063Z,112.50
2018-04-11T07:17:25.070Z,112.50
2018-04-11T07:18:25.079Z,112.50
2018-04-11T07:19:25.094Z,112.50
2018-04-11T07:20:25.098Z,112.50
2018-04-11T07:21:25.200Z,112.50
2018-04-11T07:22:25.116Z,112.50
2018-04-11T07:23:25.129Z,112.50
2018-04-11T07:24:25.134Z,112.50
2018-04-11T07:25:25.145Z,112.50
2018-04-11T07:26:25.159Z,118.13
2018-04-11T07:27:25.162Z,118.13
2018-04-11T07:28:25.172Z,118.13
2018-04-11T07:29:25.182Z,118.13
2018-04-11T07:30:25.192Z,118.13
2018-04-11T07:31:25.197Z,118.13
2018-04-11T07:32:25.216Z,118.13
2018-04-11T07:33:25.222Z,118.13
2018-04-11T07:34:25.233Z,118.13
2018-04-11T07:35:25.241Z,118.13
2018-04-11T07:36:25.247Z,118.13
2018-04-11T07:37:25.257Z,118.13
2018-04-11T07:38:25.264Z,118.13
2018-04-11T07:39:25.273Z,118.13
2018-04-11T07:40:25.306Z,118.13
2018-04-11T07:41:25.293Z,118.13
2018-04-11T07:42:25.305Z,118.13
2018-04-11T07:43:25.313Z,118.13
2018-04-11T07:44:25.323Z,118.13
2018-04-11T07:45:25.329Z,118.13
2018-04-11T07:46:25.345Z,123.75
2018-04-11T07:47:25.349Z,123.75
2018-04-11T07:48:25.362Z,123.75
2018-04-11T07:49:25.372Z,123.75
2018-04-11T07:50:25.380Z,123.75
2018-04-11T07:51:25.385Z,123.75
2018-04-11T07:52:25.397Z,123.75
2018-04-11T07:53:25.405Z,123.75
2018-04-11T07:54:25.422Z,123.75
2018-04-11T07:55:25.427Z,123.75
2018-04-11T07:56:25.435Z,123.75
2018-04-11T07:57:25.445Z,123.75
2018-04-11T07:58:25.455Z,123.75
2018-04-11T07:59:25.466Z,123.75
2018-04-11T08:00:25.475Z,123.75
2018-04-11T08:01:25.481Z,129.38
2018-04-11T08:02:25.492Z,123.75
2018-04-11T08:03:25.536Z,123.75
2018-04-11T08:04:25.518Z,123.75
2018-04-11T08:05:25.520Z,129.38
2018-04-11T08:06:25.530Z,129.38
2018-04-11T08:07:25.544Z,129.38
2018-04-11T08:08:25.551Z,129.38
2018-04-11T08:09:25.561Z,129.38
2018-04-11T08:10:25.569Z,129.38
2018-04-11T08:11:25.581Z,129.38
2018-04-11T08:12:25.589Z,129.38
2018-04-11T08:13:25.602Z,129.38
2018-04-11T08:14:25.611Z,135.00
2018-04-11T08:15:25.622Z,135.00
2018-04-11T08:16:25.629Z,135.00
2018-04-11T08:17:25.638Z,135.00
2018-04-11T08:18:25.646Z,135.00
2018-04-11T08:19:25.698Z,140.63
2018-04-11T08:20:25.669Z,140.63
2018-04-11T08:21:25.676Z,140.63
2018-04-11T08:22:25.687Z,140.63
2018-04-11T08:23:25.695Z,140.63
2018-04-11T08:24:25.892Z,140.63
2018-04-11T08:25:25.716Z,140.63
2018-04-11T08:26:25.728Z,140.63
2018-04-11T08:27:25.737Z,140.63
2018-04-11T08:28:25.747Z,140.63
2018-04-11T08:29:25.755Z,140.63
2018-04-11T08:30:25.765Z,140.63
2018-04-11T08:31:25.778Z,140.63
2018-04-11T08:32:25.785Z,140.63
2018-04-11T08:33:25.793Z,140.63
2018-04-11T08:34:25.805Z,140.63
2018-04-11T08:35:25.819Z,140.63
2018-04-11T08:36:25.826Z,140.63
2018-04-11T08:37:25.841Z,140.63
2018-04-11T08:38:25.847Z,140.63
2018-04-11T08:39:25.856Z,140.63
2018-04-11T08:40:25.863Z,140.63
2018-04-11T08:41:25.876Z,140.63
2018-04-11T08:42:25.883Z,146.25
2018-04-11T08:43:25.893Z,140.63
2018-04-11T08:44:25.904Z,140.63
2018-04-11T08:45:25.922Z,146.25
2018-04-11T08:46:25.930Z,140.63
2018-04-11T08:47:25.952Z,140.63
2018-04-11T08:48:25.947Z,140.63
2018-04-11T08:49:25.954Z,140.63
2018-04-11T08:50:26.081Z,140.63
2018-04-11T08:51:25.978Z,140.63
2018-04-11T08:52:25.985Z,140.63
2018-04-11T08:53:25.994Z,140.63
2018-04-11T08:54:26.004Z,146.25
2018-04-11T08:55:26.014Z,146.25
2018-04-11T08:56:26.024Z,146.25
2018-04-11T08:57:26.034Z,146.25
2018-04-11T08:58:26.042Z,146.25
2018-04-11T08:59:26.057Z,146.25
2018-04-11T09:00:26.072Z,146.25
2018-04-11T09:01:26.075Z,146.25
2018-04-11T09:02:26.087Z,146.25
2018-04-11T09:03:26.096Z,146.25
2018-04-11T09:04:26.108Z,146.25
2018-04-11T09:05:26.162Z,151.88
2018-04-11T09:06:26.125Z,151.88
2018-04-11T09:07:26.135Z,151.88
2018-04-11T09:08:26.146Z,151.88
2018-04-11T09:09:26.161Z,151.88
2018-04-11T09:10:26.166Z,151.88
2018-04-11T09:11:26.176Z,151.88
2018-04-11T09:12:26.186Z,151.88
2018-04-11T09:13:26.197Z,151.88
2018-04-11T09:14:26.206Z,151.88
2018-04-11T09:15:26.219Z,151.88
2018-04-11T09:16:26.229Z,151.88
2018-04-11T09:17:26.240Z,151.88
2018-04-11T09:18:26.247Z,151.88
2018-04-11T09:19:26.258Z,151.88
2018-04-11T09:20:26.272Z,151.88
2018-04-11T09:21:26.291Z,151.88
2018-04-11T09:22:26.292Z,157.50
2018-04-11T09:23:26.301Z,151.88
2018-04-11T09:24:26.315Z,157.50
2018-04-11T09:25:26.321Z,157.50
2018-04-11T09:26:26.333Z,157.50
2018-04-11T09:27:26.343Z,157.50
2018-04-11T09:28:26.354Z,157.50
2018-04-11T09:29:26.374Z,157.50
2018-04-11T09:30:26.373Z,157.50
2018-04-11T09:31:26.395Z,151.88
2018-04-11T09:32:26.395Z,157.50
2018-04-11T09:33:26.424Z,157.50
2018-04-11T09:34:26.414Z,157.50
2018-04-11T09:35:26.428Z,163.13
2018-04-11T09:36:26.437Z,163.13
2018-04-11T09:37:26.448Z,168.75
2018-04-11T09:38:26.460Z,168.75
2018-04-11T09:39:26.471Z,168.75
2018-04-11T09:40:26.480Z,163.13
2018-04-11T09:41:26.498Z,168.75
2018-04-11T09:42:26.515Z,168.75
2018-04-11T09:43:26.516Z,168.75
2018-04-11T09:44:26.533Z,174.38
2018-04-11T09:45:26.533Z,174.38
2018-04-11T09:46:26.546Z,174.38
2018-04-11T09:47:26.554Z,174.38
2018-04-11T09:48:26.566Z,174.38
2018-04-11T09:49:26.576Z,174.38
2018-04-11T09:50:26.592Z,174.38
2018-04-11T09:51:26.597Z,174.38
2018-04-11T09:52:26.610Z,174.38
2018-04-11T09:53:26.620Z,174.38
2018-04-11T09:54:26.629Z,174.38
2018-04-11T09:55:26.643Z,174.38
2018-04-11T09:56:26.654Z,168.75
2018-04-11T09:57:26.661Z,174.38
2018-04-11T09:58:26.672Z,180.00
2018-04-11T09:59:26.686Z,180.00
2018-04-11T10:00:26.702Z,174.38
2018-04-11T10:01:26.705Z,180.00
2018-04-11T10:02:26.721Z,180.00
2018-04-11T10:03:26.732Z,180.00
2018-04-11T10:04:26.737Z,185.63
2018-04-11T10:05:26.751Z,185.63
2018-04-11T10:06:26.764Z,191.25
2018-04-11T10:07:26.771Z,196.88
2018-04-11T10:08:26.782Z,208.13
2018-04-11T10:09:26.794Z,241.88
2018-04-11T10:10:26.807Z,264.38
2018-04-11T10:11:26.816Z,225.00
2018-04-11T10:12:26.828Z,213.75
2018-04-11T10:13:26.839Z,219.38
2018-04-11T10:14:26.859Z,225.00
2018-04-11T10:15:26.864Z,253.13
2018-04-11T10:16:26.873Z,309.38
2018-04-11T10:17:26.883Z,281.25
2018-04-11T10:18:26.897Z,258.75
2018-04-11T10:19:26.904Z,230.63
2018-04-11T10:20:26.919Z,241.88
2018-04-11T10:21:26.928Z,241.88
2018-04-11T10:22:26.940Z,241.88
2018-04-11T10:23:26.953Z,303.75
2018-04-11T10:24:26.965Z,399.38
2018-04-11T10:25:26.976Z,444.38
2018-04-11T10:26:26.989Z,472.50
2018-04-11T10:27:27.003Z,483.75
2018-04-11T10:28:27.006Z,450.00
2018-04-11T10:29:27.020Z,416.25
2018-04-11T10:30:27.033Z,483.75
2018-04-11T10:31:27.044Z,489.38
2018-04-11T10:32:27.055Z,427.50
2018-04-11T10:33:27.066Z,365.63
2018-04-11T10:34:27.080Z,365.63
2018-04-11T10:35:27.090Z,444.38
2018-04-11T10:36:27.106Z,523.13
2018-04-11T10:37:27.119Z,461.25
2018-04-11T10:38:27.126Z,410.63
2018-04-11T10:39:27.138Z,376.88
2018-04-11T10:40:27.151Z,354.38
2018-04-11T10:41:27.161Z,343.13
2018-04-11T10:42:27.178Z,393.75
2018-04-11T10:43:27.187Z,416.25
2018-04-11T10:44:27.199Z,399.38
2018-04-11T10:45:27.212Z,421.88
2018-04-11T10:46:27.226Z,466.88
2018-04-11T10:47:27.237Z,461.25
2018-04-11T10:48:27.321Z,421.88
2018-04-11T10:49:27.262Z,326.25
2018-04-11T10:50:27.272Z,371.25
2018-04-11T10:51:27.290Z,528.75
2018-04-11T10:52:27.301Z,433.13
2018-04-11T10:53:27.314Z,399.38
2018-04-11T10:54:27.330Z,444.38
2018-04-11T10:55:27.343Z,2041.88
2018-04-11T10:56:27.354Z,517.50
2018-04-11T10:57:27.368Z,450.00
2018-04-11T10:58:27.376Z,461.25
2018-04-11T10:59:27.391Z,2508.75
2018-04-11T11:00:27.404Z,663.75
2018-04-11T11:01:27.449Z,776.25
2018-04-11T11:02:27.432Z,596.25
2018-04-11T11:03:27.446Z,517.50
2018-04-11T11:04:27.458Z,562.50
2018-04-11T11:05:27.472Z,472.50
2018-04-11T11:06:27.485Z,472.50
2018-04-11T11:07:27.501Z,506.25
2018-04-11T11:08:27.512Z,523.13
2018-04-11T11:09:27.527Z,523.13
2018-04-11T11:10:27.544Z,585.00
2018-04-11T11:11:27.555Z,1366.88
2018-04-11T11:12:27.570Z,4235.63
2018-04-11T11:13:27.581Z,4066.88
2018-04-11T11:14:27.600Z,4038.75
2018-04-11T11:15:27.612Z,4151.25
2018-04-11T11:16:27.653Z,3976.88
2018-04-11T11:17:27.642Z,3768.75
2018-04-11T11:18:27.659Z,3796.88
2018-04-11T11:19:27.676Z,3780.00
2018-04-11T11:20:27.693Z,3971.25
2018-04-11T11:21:27.709Z,3937.50
2018-04-11T11:22:27.729Z,4027.50
2018-04-11T11:23:27.748Z,3853.13
2018-04-11T11:24:27.767Z,3796.88
2018-04-11T11:25:27.785Z,4072.50
2018-04-11T11:26:27.805Z,4741.88
2018-04-11T11:27:27.840Z,4680.00
2018-04-11T11:28:27.845Z,3577.50
2018-04-11T11:29:27.866Z,2379.38
2018-04-11T11:30:27.886Z,2086.88
2018-04-11T11:31:27.913Z,2103.75
2018-04-11T11:32:27.933Z,731.25
2018-04-11T11:33:27.952Z,1209.38
2018-04-11T11:34:27.976Z,540.00
2018-04-11T11:35:28.003Z,2137.50
2018-04-11T11:36:28.021Z,2137.50
2018-04-11T11:37:28.041Z,1057.50
2018-04-11T11:38:28.071Z,2176.88
2018-04-11T11:39:28.090Z,2210.63
2018-04-11T11:40:28.131Z,2323.13
2018-04-11T11:41:28.129Z,2435.63
2018-04-11T11:42:28.152Z,1828.13
2018-04-11T11:43:28.177Z,2109.38
2018-04-11T11:44:28.200Z,2323.13
2018-04-11T11:45:28.223Z,371.25
2018-04-11T11:46:28.247Z,376.88
2018-04-11T11:47:28.268Z,382.50
2018-04-11T11:48:28.293Z,388.13
2018-04-11T11:49:28.314Z,506.25
2018-04-11T11:50:28.337Z,2604.38
2018-04-11T11:51:28.359Z,2475.00
2018-04-11T11:52:28.380Z,371.25
2018-04-11T11:53:28.399Z,371.25
2018-04-11T11:54:28.423Z,416.25
2018-04-11T11:55:28.444Z,556.88
2018-04-11T11:56:28.463Z,523.13
2018-04-11T11:57:28.489Z,545.63
2018-04-11T11:58:28.509Z,2874.38
2018-04-11T11:59:28.530Z,2806.88
2018-04-11T12:00:28.553Z,2885.63
2018-04-11T12:01:28.572Z,2880.00
2018-04-11T12:02:28.592Z,2896.88
2018-04-11T12:03:28.610Z,2896.88
2018-04-11T12:04:28.638Z,2891.25
2018-04-11T12:05:28.653Z,691.88
2018-04-11T12:06:28.676Z,2806.88
2018-04-11T12:07:28.700Z,961.88
2018-04-11T12:08:28.719Z,2272.50
2018-04-11T12:09:28.740Z,3026.25
2018-04-11T12:10:28.767Z,2953.13
2018-04-11T12:11:28.791Z,2964.38
2018-04-11T12:12:28.809Z,2947.50
2018-04-11T12:13:28.830Z,2891.25
2018-04-11T12:14:28.855Z,2941.88
2018-04-11T12:15:28.880Z,2857.50
2018-04-11T12:16:28.899Z,2902.50
2018-04-11T12:17:28.923Z,2036.25
2018-04-11T12:18:28.948Z,2896.88
2018-04-11T12:19:28.986Z,2941.88
2018-04-11T12:20:28.996Z,1096.88
2018-04-11T12:21:29.019Z,2970.00
2018-04-11T12:22:29.046Z,3076.88
2018-04-11T12:23:29.067Z,641.25
2018-04-11T12:24:29.089Z,551.25
2018-04-11T12:25:29.118Z,2863.13
2018-04-11T12:26:29.143Z,1074.38
2018-04-11T12:27:29.169Z,894.38
2018-04-11T12:28:29.191Z,3026.25
2018-04-11T12:29:29.213Z,2756.25
2018-04-11T12:30:29.236Z,697.50
2018-04-11T12:31:29.258Z,708.75
2018-04-11T12:32:29.283Z,1276.88
2018-04-11T12:33:29.308Z,2244.38
2018-04-11T12:34:29.327Z,2272.50
2018-04-11T12:35:29.354Z,3211.88
2018-04-11T12:36:29.376Z,3420.00
2018-04-11T12:37:29.400Z,3459.38
2018-04-11T12:38:29.422Z,3600.00
2018-04-11T12:39:29.445Z,3701.25
2018-04-11T12:40:29.469Z,3285.00
2018-04-11T12:41:29.496Z,3588.75
2018-04-11T12:42:29.516Z,3504.38
2018-04-11T12:43:29.543Z,3313.13
2018-04-11T12:44:29.563Z,3425.63
2018-04-11T12:45:29.589Z,3183.75
2018-04-11T12:46:29.632Z,1406.25
2018-04-11T12:47:29.637Z,2711.25
2018-04-11T12:48:29.665Z,3009.38
2018-04-11T12:49:29.687Z,2919.38
2018-04-11T12:50:29.718Z,2851.88
2018-04-11T12:51:29.738Z,2947.50
2018-04-11T12:52:29.765Z,2846.25
2018-04-11T12:53:29.793Z,2846.25
2018-04-11T12:54:29.817Z,2835.00
2018-04-11T12:55:29.851Z,2823.75
2018-04-11T12:56:29.869Z,2722.50
2018-04-11T12:57:29.893Z,2671.88
2018-04-11T12:58:29.983Z,2649.38
2018-04-11T12:59:29.947Z,2615.63
2018-04-11T13:00:29.972Z,2559.38
2018-04-11T13:01:30.002Z,2486.25
2018-04-11T13:02:30.024Z,2418.75
2018-04-11T13:03:30.057Z,2430.00
2018-04-11T13:04:30.085Z,2520.00
2018-04-11T13:05:30.106Z,2514.38
2018-04-11T13:06:30.133Z,2576.25
2018-04-11T13:07:30.177Z,2531.25
2018-04-11T13:08:30.197Z,2497.50
2018-04-11T13:09:30.215Z,2536.88
2018-04-11T13:10:30.240Z,2542.50
2018-04-11T13:11:30.270Z,2480.63
2018-04-11T13:12:30.294Z,2480.63
2018-04-11T13:13:30.326Z,2463.75
2018-04-11T13:14:30.356Z,2587.50
2018-04-11T13:15:30.380Z,2626.88
2018-04-11T13:16:30.408Z,2683.13